createdAt,value
2023-02-27T00:00:38.773Z,52415.74
2023-02-27T00:03:13.068Z,52422.17
2023-02-27T00:05:48.496Z,52430.61
2023-02-27T00:08:25.209Z,52430.61
2023-02-27T00:10:57.949Z,52431.01
2023-02-27T00:13:30.789Z,52451.51
2023-02-27T00:16:05.284Z,52439.45
2023-02-27T00:18:41.765Z,52437.04
2023-02-27T00:21:14.721Z,52443.87
2023-02-27T00:23:47.519Z,52441.06
2023-02-27T00:26:20.835Z,52451.10
2023-02-27T00:28:55.632Z,52439.85
2023-02-27T00:31:28.718Z,52434.63
2023-02-27T00:34:02.049Z,52434.23
2023-02-27T00:36:35.035Z,52437.04
2023-02-27T00:39:08.694Z,52418.55
2023-02-27T00:41:41.591Z,52439.45
2023-02-27T00:44:15.180Z,52446.68
2023-02-27T00:46:49.349Z,52438.65
2023-02-27T00:49:23.210Z,52429.00
2023-02-27T00:51:57.839Z,52420.16
2023-02-27T00:54:33.017Z,52442.67
2023-02-27T00:57:06.450Z,52431.82
2023-02-27T00:59:39.966Z,52436.24
2023-02-27T01:02:14.673Z,52430.21
2023-02-27T01:04:52.817Z,52433.43
2023-02-27T01:07:26.338Z,52435.43
2023-02-27T01:10:00.959Z,52431.81
2023-02-27T01:12:34.458Z,52427.39
2023-02-27T01:15:09.758Z,52434.63
2023-02-27T01:17:48.185Z,52441.86
2023-02-27T01:20:21.967Z,52424.58
2023-02-27T01:22:54.845Z,52435.83
2023-02-27T01:25:30.123Z,52438.64
2023-02-27T01:28:03.252Z,52428.20
2023-02-27T01:30:36.716Z,52435.84
2023-02-27T01:33:09.820Z,52433.43
2023-02-27T01:35:43.581Z,52439.85
2023-02-27T01:38:18.359Z,52442.66
2023-02-27T01:40:51.248Z,52437.45
2023-02-27T01:43:24.392Z,52429.80
2023-02-27T01:46:01.063Z,52434.23
2023-02-27T01:48:35.503Z,52440.25
2023-02-27T01:51:11.662Z,52429.00
2023-02-27T01:53:45.378Z,52432.22
2023-02-27T01:56:19.898Z,52428.60
2023-02-27T01:58:53.523Z,52440.26
2023-02-27T02:01:26.658Z,52429.00
2023-02-27T02:04:01.542Z,52441.05
2023-02-27T02:06:39.466Z,52424.18
2023-02-27T02:09:12.202Z,52431.81
2023-02-27T02:11:46.840Z,52430.61
2023-02-27T02:14:29.072Z,52435.02
2023-02-27T02:17:13.902Z,52426.99
2023-02-27T02:20:15.887Z,52428.20
2023-02-27T02:23:15.762Z,52410.92
2023-02-27T02:26:09.045Z,52429.00
2023-02-27T02:29:12.920Z,52432.22
2023-02-27T02:32:24.660Z,52449.90
2023-02-27T02:35:30.107Z,52428.60
2023-02-27T02:38:57.316Z,52462.36
2023-02-27T02:41:35.873Z,52438.24
2023-02-27T02:44:14.945Z,52424.98
2023-02-27T02:46:49.232Z,52432.62
2023-02-27T02:49:25.636Z,52428.20
2023-02-27T02:52:01.858Z,52443.47
2023-02-27T02:54:40.505Z,52431.41
2023-02-27T02:57:15.718Z,52447.89
2023-02-27T02:59:52.035Z,52443.47
2023-02-27T03:02:26.953Z,52444.68
2023-02-27T03:05:02.012Z,52419.76
2023-02-27T03:07:37.138Z,52444.68
2023-02-27T03:10:13.196Z,52430.61
2023-02-27T03:12:53.769Z,52451.51
2023-02-27T03:15:28.760Z,52437.44
2023-02-27T03:18:03.135Z,52417.34
2023-02-27T03:20:39.146Z,52431.41
2023-02-27T03:23:13.198Z,52449.49
2023-02-27T03:25:48.067Z,52417.34
2023-02-27T03:28:23.936Z,52424.18
2023-02-27T03:31:01.192Z,52425.38
2023-02-27T03:33:35.343Z,52430.61
2023-02-27T03:36:11.216Z,52443.87
2023-02-27T03:38:45.512Z,52433.02
2023-02-27T03:41:21.482Z,52439.45
2023-02-27T03:44:07.150Z,52431.41
2023-02-27T03:46:39.959Z,52430.61
2023-02-27T03:49:13.122Z,52436.23
2023-02-27T03:51:45.865Z,52443.47
2023-02-27T03:54:20.098Z,52410.52
2023-02-27T03:56:56.142Z,52425.79
2023-02-27T03:59:29.678Z,52429.40
2023-02-27T04:02:03.343Z,52419.36
2023-02-27T04:04:37.364Z,52443.88
2023-02-27T04:07:24.977Z,52426.99
2023-02-27T04:10:15.730Z,52430.21
2023-02-27T04:13:01.216Z,52433.43
2023-02-27T04:15:38.609Z,52431.41
2023-02-27T04:18:19.088Z,52429.80
2023-02-27T04:20:53.523Z,52436.23
2023-02-27T04:23:30.437Z,52415.74
2023-02-27T04:26:11.091Z,52449.49
2023-02-27T04:28:45.740Z,52415.34
2023-02-27T04:31:21.533Z,52441.46
2023-02-27T04:33:56.388Z,52441.86
2023-02-27T04:36:32.298Z,52435.43
2023-02-27T04:39:08.449Z,52446.69
2023-02-27T04:41:44.142Z,52442.26
2023-02-27T04:44:16.927Z,52453.92
2023-02-27T04:46:49.863Z,52424.98
2023-02-27T04:49:24.528Z,52428.20
2023-02-27T04:51:58.448Z,52439.05
2023-02-27T04:54:33.496Z,52447.08
2023-02-27T04:57:07.906Z,52445.88
2023-02-27T04:59:41.416Z,52436.24
2023-02-27T05:02:16.218Z,52445.48
2023-02-27T05:04:49.187Z,52447.09
2023-02-27T05:07:23.582Z,52443.87
2023-02-27T05:09:57.916Z,52445.48
2023-02-27T05:12:33.699Z,52431.81
2023-02-27T05:15:07.783Z,52446.28
2023-02-27T05:17:42.469Z,52433.82
2023-02-27T05:20:16.123Z,52447.49
2023-02-27T05:22:58.393Z,52458.74
2023-02-27T05:25:32.711Z,52438.25
2023-02-27T05:28:08.317Z,52448.29
2023-02-27T05:30:42.977Z,52442.66
2023-02-27T05:33:19.665Z,52443.87
2023-02-27T05:35:54.725Z,52432.22
2023-02-27T05:38:29.204Z,52439.85
2023-02-27T05:41:05.300Z,52427.39
2023-02-27T05:43:39.082Z,52431.82
2023-02-27T05:46:15.145Z,52433.82
2023-02-27T05:48:51.620Z,52430.61
2023-02-27T05:51:25.583Z,52422.97
2023-02-27T05:54:01.418Z,52418.96
2023-02-27T05:56:34.314Z,52440.25
2023-02-27T05:59:10.601Z,52435.03
2023-02-27T06:01:46.360Z,52423.77
2023-02-27T06:04:21.099Z,52420.16
2023-02-27T06:06:54.810Z,52420.56
2023-02-27T06:09:27.480Z,52412.93
2023-02-27T06:12:01.297Z,52433.82
2023-02-27T06:14:34.630Z,52428.60
2023-02-27T06:17:07.792Z,52414.13
2023-02-27T06:19:40.728Z,52413.33
2023-02-27T06:22:14.095Z,52414.13
2023-02-27T06:24:47.333Z,52408.91
2023-02-27T06:27:20.132Z,52390.82
2023-02-27T06:29:53.997Z,52410.11
2023-02-27T06:32:26.809Z,52403.68
2023-02-27T06:35:02.984Z,52409.71
2023-02-27T06:37:35.774Z,52403.68
2023-02-27T06:40:13.048Z,52390.42
2023-02-27T06:42:46.766Z,52397.66
2023-02-27T06:45:19.982Z,52393.24
2023-02-27T06:47:53.597Z,52395.24
2023-02-27T06:50:26.805Z,52412.93
2023-02-27T06:52:59.791Z,52404.89
2023-02-27T06:55:33.103Z,52399.66
2023-02-27T06:58:06.713Z,52395.24
2023-02-27T07:00:39.949Z,52388.81
2023-02-27T07:03:13.085Z,52398.46
2023-02-27T07:05:47.913Z,52398.46
2023-02-27T07:08:20.722Z,52382.79
2023-02-27T07:10:54.364Z,52380.38
2023-02-27T07:13:29.825Z,52372.34
2023-02-27T07:16:03.982Z,52378.77
2023-02-27T07:18:36.904Z,52388.01
2023-02-27T07:21:10.070Z,52367.11
2023-02-27T07:23:44.183Z,52371.94
2023-02-27T07:26:19.499Z,52376.76
2023-02-27T07:28:52.983Z,52371.53
2023-02-27T07:31:29.103Z,52394.44
2023-02-27T07:34:01.967Z,52380.37
2023-02-27T07:36:34.845Z,52369.12
2023-02-27T07:39:09.179Z,52370.73
2023-02-27T07:41:41.868Z,52377.56
2023-02-27T07:44:21.195Z,52377.96
2023-02-27T07:46:54.200Z,52370.33
2023-02-27T07:49:27.038Z,52365.91
2023-02-27T07:51:59.839Z,52376.36
2023-02-27T07:54:35.367Z,52355.46
2023-02-27T07:57:13.370Z,52377.56
2023-02-27T07:59:46.171Z,52359.48
2023-02-27T08:02:19.823Z,52348.22
2023-02-27T08:04:53.725Z,52322.91
2023-02-27T08:07:27.228Z,52368.72
2023-02-27T08:10:01.190Z,52353.85
2023-02-27T08:12:35.224Z,52361.89
2023-02-27T08:15:10.530Z,52342.20
2023-02-27T08:17:43.364Z,52333.76
2023-02-27T08:20:17.475Z,52351.84
2023-02-27T08:22:51.102Z,52335.77
2023-02-27T08:25:24.543Z,52338.58
2023-02-27T08:27:57.424Z,52328.93
2023-02-27T08:30:30.732Z,52331.34
2023-02-27T08:33:03.726Z,52326.52
2023-02-27T08:35:39.679Z,52315.27
2023-02-27T08:38:12.955Z,52319.29
2023-02-27T08:40:47.568Z,52323.71
2023-02-27T08:43:20.677Z,52302.81
2023-02-27T08:45:54.732Z,52331.35
2023-02-27T08:48:29.393Z,52308.44
2023-02-27T08:51:02.766Z,52319.29
2023-02-27T08:53:35.997Z,52317.68
2023-02-27T08:56:09.828Z,52297.99
2023-02-27T08:58:43.631Z,52299.60
2023-02-27T09:01:18.212Z,52298.39
2023-02-27T09:03:51.410Z,52286.74
2023-02-27T09:06:26.267Z,52286.34
2023-02-27T09:09:01.427Z,52287.54
2023-02-27T09:11:36.392Z,52290.76
2023-02-27T09:14:11.754Z,52302.01
2023-02-27T09:16:44.855Z,52284.73
2023-02-27T09:19:18.930Z,52301.61
2023-02-27T09:21:51.797Z,52295.18
2023-02-27T09:24:32.369Z,52286.34
2023-02-27T09:27:06.952Z,52300.00
2023-02-27T09:29:40.032Z,52290.76
2023-02-27T09:32:17.887Z,52302.41
2023-02-27T09:34:51.157Z,52303.62
2023-02-27T09:37:25.228Z,52283.12
2023-02-27T09:39:57.907Z,52290.35
2023-02-27T09:42:34.992Z,52287.54
2023-02-27T09:45:09.788Z,52269.86
2023-02-27T09:47:46.321Z,52268.25
2023-02-27T09:50:37.249Z,52290.76
2023-02-27T09:53:14.137Z,52283.52
2023-02-27T09:55:47.769Z,52300.40
2023-02-27T09:58:31.394Z,52284.73
2023-02-27T10:01:07.336Z,52278.30
2023-02-27T10:03:52.828Z,52288.75
2023-02-27T10:06:28.938Z,52289.15
2023-02-27T10:09:11.515Z,52278.30
2023-02-27T10:11:53.762Z,52281.11
2023-02-27T10:14:32.037Z,52284.32
2023-02-27T10:17:07.734Z,52284.33
2023-02-27T10:19:42.438Z,52282.72
2023-02-27T10:22:15.869Z,52270.66
2023-02-27T10:24:52.643Z,52274.68
2023-02-27T10:27:25.804Z,52266.24
2023-02-27T10:30:01.413Z,52254.59
2023-02-27T10:32:35.511Z,52259.01
2023-02-27T10:35:11.402Z,52272.68
2023-02-27T10:37:47.739Z,52263.83
2023-02-27T10:40:21.737Z,52274.28
2023-02-27T10:42:55.258Z,52265.84
2023-02-27T10:45:28.184Z,52243.33
2023-02-27T10:48:02.348Z,52276.69
2023-02-27T10:50:36.503Z,52261.82
2023-02-27T10:53:18.266Z,52272.27
2023-02-27T10:56:01.908Z,52277.49
2023-02-27T10:58:37.106Z,52253.79
2023-02-27T11:01:10.985Z,52262.23
2023-02-27T11:03:44.890Z,52267.45
2023-02-27T11:06:24.291Z,52275.89
2023-02-27T11:09:14.232Z,52259.82
2023-02-27T11:11:47.926Z,52275.08
2023-02-27T11:14:30.786Z,52268.65
2023-02-27T11:17:04.270Z,52267.85
2023-02-27T11:19:44.781Z,52254.59
2023-02-27T11:22:20.235Z,52253.38
2023-02-27T11:24:53.858Z,52240.93
2023-02-27T11:27:29.124Z,52255.39
2023-02-27T11:30:03.227Z,52248.96
2023-02-27T11:32:42.933Z,52270.66
2023-02-27T11:35:23.695Z,52257.80
2023-02-27T11:38:23.614Z,52255.39
2023-02-27T11:40:57.485Z,52258.61
2023-02-27T11:43:31.670Z,52265.44
2023-02-27T11:46:39.138Z,52244.54
2023-02-27T11:49:08.147Z,52260.21
2023-02-27T11:51:48.971Z,52256.60
2023-02-27T11:54:29.010Z,52257.00
2023-02-27T11:57:04.990Z,52250.97
2023-02-27T11:59:43.730Z,52254.18
2023-02-27T12:02:19.408Z,52254.99
2023-02-27T12:04:58.503Z,52246.55
2023-02-27T12:07:34.023Z,52235.30
2023-02-27T12:10:12.448Z,52249.37
2023-02-27T12:12:47.251Z,52253.39
2023-02-27T12:15:25.696Z,52250.17
2023-02-27T12:18:05.076Z,52265.04
2023-02-27T12:20:39.856Z,52244.54
2023-02-27T12:23:22.805Z,52250.98
2023-02-27T12:25:57.517Z,52242.93
2023-02-27T12:28:43.098Z,52239.72
2023-02-27T12:31:33.748Z,52252.18
2023-02-27T12:34:10.358Z,52257.40
2023-02-27T12:36:43.988Z,52246.55
2023-02-27T12:39:21.375Z,52240.93
2023-02-27T12:42:16.229Z,52260.22
2023-02-27T12:45:10.716Z,52277.49
2023-02-27T12:47:47.279Z,52275.09
2023-02-27T12:50:20.323Z,52267.05
2023-02-27T12:53:02.031Z,52279.91
2023-02-27T12:55:34.192Z,52269.05
2023-02-27T12:58:29.176Z,52271.87
2023-02-27T13:01:04.068Z,52273.48
2023-02-27T13:03:40.631Z,52259.41
2023-02-27T13:06:17.066Z,52274.68
2023-02-27T13:09:06.186Z,52279.50
2023-02-27T13:11:46.340Z,52274.28
2023-02-27T13:14:28.397Z,52267.45
2023-02-27T13:17:04.339Z,52291.16
2023-02-27T13:19:38.517Z,52277.09
2023-02-27T13:22:16.165Z,52262.23
2023-02-27T13:24:51.314Z,52278.30
2023-02-27T13:27:25.291Z,52269.86
2023-02-27T13:30:06.703Z,52281.11
2023-02-27T13:32:48.409Z,52282.72
2023-02-27T13:35:25.396Z,52270.26
2023-02-27T13:37:59.198Z,52289.95
2023-02-27T13:40:40.211Z,52272.68
2023-02-27T13:43:40.540Z,52272.27
2023-02-27T13:46:26.175Z,52286.34
2023-02-27T13:48:59.180Z,52282.72
2023-02-27T13:52:00.004Z,52299.60
2023-02-27T13:54:36.581Z,52300.80
2023-02-27T13:57:24.499Z,52308.84
2023-02-27T14:00:01.743Z,52312.46
2023-02-27T14:02:58.302Z,52328.93
2023-02-27T14:05:35.027Z,52321.70
2023-02-27T14:08:15.260Z,52322.10
2023-02-27T14:10:57.178Z,52338.98
2023-02-27T14:14:01.977Z,52324.51
2023-02-27T14:16:59.442Z,52324.51
2023-02-27T14:19:59.678Z,52336.97
2023-02-27T14:22:37.440Z,52343.00
2023-02-27T14:25:24.850Z,52318.89
2023-02-27T14:28:00.384Z,52329.74
2023-02-27T14:30:35.988Z,52324.11
2023-02-27T14:33:24.122Z,52338.18
2023-02-27T14:36:05.752Z,52335.77
2023-02-27T14:38:40.508Z,52337.77
2023-02-27T14:41:32.857Z,52349.03
2023-02-27T14:44:05.915Z,52343.00
2023-02-27T14:46:42.594Z,52348.63
2023-02-27T14:49:22.794Z,52351.04
2023-02-27T14:51:55.756Z,52338.58
2023-02-27T14:54:29.464Z,52345.01
2023-02-27T14:57:04.432Z,52347.82
2023-02-27T14:59:45.223Z,52349.43
2023-02-27T15:02:24.473Z,52369.93
2023-02-27T15:05:15.834Z,52367.11
2023-02-27T15:07:49.426Z,52350.63
2023-02-27T15:10:26.696Z,52353.45
2023-02-27T15:12:59.884Z,52358.27
2023-02-27T15:15:34.016Z,52360.68
2023-02-27T15:18:15.203Z,52365.51
2023-02-27T15:20:48.362Z,52342.20
2023-02-27T15:23:27.113Z,52359.88
2023-02-27T15:26:02.326Z,52361.89
2023-02-27T15:28:40.911Z,52346.21
2023-02-27T15:31:19.359Z,52346.62
2023-02-27T15:33:53.507Z,52362.29
2023-02-27T15:36:27.656Z,52365.50
2023-02-27T15:39:09.852Z,52347.82
2023-02-27T15:41:43.445Z,52374.35
2023-02-27T15:44:16.446Z,52351.44
2023-02-27T15:46:49.831Z,52367.51
2023-02-27T15:49:23.691Z,52369.93
2023-02-27T15:52:02.470Z,52361.09
2023-02-27T15:54:38.636Z,52363.50
2023-02-27T15:57:11.465Z,52378.77
2023-02-27T15:59:49.478Z,52375.55
2023-02-27T16:02:23.923Z,52371.93
2023-02-27T16:04:56.820Z,52374.75
2023-02-27T16:07:31.149Z,52386.40
2023-02-27T16:10:05.104Z,52362.70
2023-02-27T16:12:39.370Z,52362.70
2023-02-27T16:15:26.722Z,52386.40
2023-02-27T16:18:08.101Z,52364.70
2023-02-27T16:20:44.881Z,52369.12
2023-02-27T16:23:23.831Z,52366.71
2023-02-27T16:26:08.487Z,52381.18
2023-02-27T16:28:43.850Z,52372.74
2023-02-27T16:31:26.353Z,52371.13
2023-02-27T16:34:03.891Z,52364.30
2023-02-27T16:36:37.208Z,52370.73
2023-02-27T16:39:11.223Z,52379.57
2023-02-27T16:41:44.552Z,52383.59
2023-02-27T16:44:18.507Z,52375.55
2023-02-27T16:46:51.278Z,52372.74
2023-02-27T16:49:24.869Z,52377.16
2023-02-27T16:51:57.844Z,52376.76
2023-02-27T16:54:30.715Z,52381.18
2023-02-27T16:57:03.652Z,52369.52
2023-02-27T16:59:37.441Z,52373.95
2023-02-27T17:02:14.716Z,52384.80
2023-02-27T17:04:48.673Z,52394.84
2023-02-27T17:07:21.743Z,52384.39
2023-02-27T17:09:54.616Z,52383.99
2023-02-27T17:12:28.278Z,52400.47
2023-02-27T17:15:02.889Z,52412.93
2023-02-27T17:17:36.165Z,52403.68
2023-02-27T17:20:11.893Z,52398.86
2023-02-27T17:22:46.895Z,52398.86
2023-02-27T17:25:21.004Z,52383.19
2023-02-27T17:27:53.844Z,52393.63
2023-02-27T17:30:26.712Z,52400.47
2023-02-27T17:33:01.540Z,52428.60
2023-02-27T17:35:37.017Z,52409.71
2023-02-27T17:38:10.068Z,52398.86
2023-02-27T17:40:43.078Z,52414.53
2023-02-27T17:43:16.041Z,52402.48
2023-02-27T17:45:49.731Z,52398.46
2023-02-27T17:48:22.727Z,52411.72
2023-02-27T17:50:56.290Z,52416.95
2023-02-27T17:53:29.657Z,52402.08
2023-02-27T17:56:02.743Z,52408.91
2023-02-27T17:58:38.305Z,52413.73
2023-02-27T18:01:12.914Z,52431.81
2023-02-27T18:03:45.937Z,52401.27
2023-02-27T18:06:19.122Z,52410.92
2023-02-27T18:08:52.406Z,52422.98
2023-02-27T18:11:25.719Z,52416.14
2023-02-27T18:13:58.817Z,52424.99
2023-02-27T18:16:31.920Z,52410.51
2023-02-27T18:19:06.393Z,52437.84
2023-02-27T18:21:39.441Z,52419.76
2023-02-27T18:24:12.436Z,52435.84
2023-02-27T18:26:45.892Z,52408.11
2023-02-27T18:29:19.070Z,52422.97
2023-02-27T18:31:54.943Z,52439.45
2023-02-27T18:34:28.432Z,52432.22
2023-02-27T18:37:01.353Z,52414.94
2023-02-27T18:39:34.486Z,52431.41
2023-02-27T18:42:09.019Z,52443.47
2023-02-27T18:44:42.451Z,52418.15
2023-02-27T18:47:15.418Z,52435.84
2023-02-27T18:49:48.348Z,52443.07
2023-02-27T18:52:21.257Z,52419.36
2023-02-27T18:54:55.428Z,52428.20
2023-02-27T18:57:29.271Z,52428.20
2023-02-27T19:00:02.623Z,52420.16
2023-02-27T19:02:39.865Z,52433.02
2023-02-27T19:05:16.019Z,52442.66
2023-02-27T19:07:49.318Z,52420.96
2023-02-27T19:10:22.560Z,52441.46
2023-02-27T19:12:55.304Z,52429.80
2023-02-27T19:15:29.795Z,52443.87
2023-02-27T19:18:02.795Z,52435.43
2023-02-27T19:20:36.239Z,52431.01
2023-02-27T19:23:09.676Z,52431.41
2023-02-27T19:25:44.018Z,52442.66
2023-02-27T19:28:17.158Z,52419.36
2023-02-27T19:30:50.264Z,52441.46
2023-02-27T19:33:23.707Z,52433.43
2023-02-27T19:35:57.197Z,52419.36
2023-02-27T19:38:31.003Z,52427.39
2023-02-27T19:41:05.182Z,52447.89
2023-02-27T19:43:39.144Z,52419.76
2023-02-27T19:46:17.989Z,52435.43
2023-02-27T19:48:51.064Z,52458.74
2023-02-27T19:51:24.653Z,52439.45
2023-02-27T19:53:57.982Z,52444.68
2023-02-27T19:56:31.605Z,52449.49
2023-02-27T19:59:06.028Z,52428.60
2023-02-27T20:01:39.746Z,52441.86
2023-02-27T20:04:14.335Z,52439.85
2023-02-27T20:06:49.800Z,52437.44
2023-02-27T20:09:23.592Z,52432.22
2023-02-27T20:11:59.506Z,52459.95
2023-02-27T20:14:39.220Z,52441.05
2023-02-27T20:17:12.412Z,52443.47
2023-02-27T20:19:45.312Z,52443.88
2023-02-27T20:22:18.174Z,52449.09
2023-02-27T20:24:51.033Z,52453.92
2023-02-27T20:27:24.451Z,52448.29
2023-02-27T20:29:58.324Z,52444.27
2023-02-27T20:32:37.821Z,52439.85
2023-02-27T20:35:12.846Z,52454.73
2023-02-27T20:37:45.748Z,52463.56
2023-02-27T20:40:19.742Z,52445.88
2023-02-27T20:42:52.687Z,52419.36
2023-02-27T20:45:25.564Z,52444.27
2023-02-27T20:47:58.673Z,52441.46
2023-02-27T20:50:31.855Z,52449.89
2023-02-27T20:53:05.361Z,52449.90
2023-02-27T20:55:38.567Z,52449.90
2023-02-27T20:58:12.052Z,52444.68
2023-02-27T21:00:45.135Z,52451.91
2023-02-27T21:03:18.520Z,52451.11
2023-02-27T21:05:51.742Z,52451.10
2023-02-27T21:08:25.337Z,52442.66
2023-02-27T21:11:00.874Z,52451.91
2023-02-27T21:13:34.592Z,52441.46
2023-02-27T21:16:09.636Z,52468.79
2023-02-27T21:18:42.588Z,52462.36
2023-02-27T21:21:16.623Z,52460.75
2023-02-27T21:23:49.478Z,52466.38
2023-02-27T21:26:23.431Z,52475.22
2023-02-27T21:28:57.209Z,52456.33
2023-02-27T21:31:33.771Z,52446.69
2023-02-27T21:34:08.302Z,52461.15
2023-02-27T21:36:43.650Z,52447.89
2023-02-27T21:39:36.602Z,52468.39
2023-02-27T21:42:10.282Z,52464.76
2023-02-27T21:44:44.184Z,52447.49
2023-02-27T21:47:21.551Z,52465.57
2023-02-27T21:49:54.693Z,52459.54
2023-02-27T21:52:27.439Z,52464.77
2023-02-27T21:55:00.220Z,52453.92
2023-02-27T21:57:34.196Z,52455.52
2023-02-27T22:00:11.430Z,52464.37
2023-02-27T22:02:44.361Z,52470.80
2023-02-27T22:05:17.337Z,52476.02
2023-02-27T22:07:50.440Z,52465.57
2023-02-27T22:10:26.274Z,52457.53
2023-02-27T22:12:59.409Z,52466.38
2023-02-27T22:15:32.234Z,52451.91
2023-02-27T22:18:06.538Z,52479.64
2023-02-27T22:20:41.427Z,52471.60
2023-02-27T22:23:15.601Z,52458.74
2023-02-27T22:25:48.789Z,52453.52
2023-02-27T22:28:25.709Z,52465.98
2023-02-27T22:31:08.273Z,52485.66
2023-02-27T22:33:41.272Z,52462.36
2023-02-27T22:36:16.646Z,52464.77
2023-02-27T22:38:49.641Z,52467.58
2023-02-27T22:41:23.481Z,52455.52
2023-02-27T22:43:56.729Z,52468.79
2023-02-27T22:46:30.687Z,52461.96
2023-02-27T22:49:06.304Z,52472.41
2023-02-27T22:51:39.974Z,52473.61
2023-02-27T22:54:14.232Z,52452.71
2023-02-27T22:56:47.181Z,52468.39
2023-02-27T22:59:31.367Z,52461.55
2023-02-27T23:02:06.638Z,52472.40
2023-02-27T23:04:39.601Z,52472.00
2023-02-27T23:07:12.704Z,52468.38
2023-02-27T23:09:45.728Z,52461.15
2023-02-27T23:12:20.658Z,52459.14
2023-02-27T23:14:55.240Z,52459.54
2023-02-27T23:17:28.293Z,52454.73
2023-02-27T23:20:04.665Z,52461.96
2023-02-27T23:22:37.757Z,52470.39
2023-02-27T23:25:12.092Z,52460.74
2023-02-27T23:27:44.958Z,52487.68
2023-02-27T23:30:18.477Z,52446.28
2023-02-27T23:32:51.580Z,52451.91
2023-02-27T23:35:25.126Z,52481.24
2023-02-27T23:37:59.322Z,52467.18
2023-02-27T23:40:32.067Z,52467.58
2023-02-27T23:43:05.054Z,52486.48
2023-02-27T23:45:42.927Z,52480.84
2023-02-27T23:48:16.084Z,52462.76
2023-02-27T23:50:48.959Z,52463.96
2023-02-27T23:53:23.204Z,52455.13
2023-02-27T23:55:56.110Z,52486.88
2023-02-27T23:58:29.822Z,52476.82
